Time;durP1;ratioP1;P1;durP2;ratioP2;P2;SDS_P1;SDS_P2;PMS_P1;PMS_P2;Temp;Humidity;BMP_temperature;BMP_pressure;BME280_temperature;BME280_humidity;BME280_pressure;Samples;Min_cycle;Max_cycle;Signal;HPM_P1;HPM_P2
2020/12/07 00:02:23;;;;;;;0.10;0.10;;;;;;;;;;5040809;28;20210;-68
2020/12/07 00:04:50;;;;;;;0.20;0.20;;;;;;;;;;5040305;28;20394;-69
2020/12/07 00:07:16;;;;;;;0.17;0.17;;;;;;;;;;5037869;28;20448;-69
2020/12/07 00:09:43;;;;;;;0.10;0.10;;;;;;;;;;5056206;28;20543;-69
2020/12/07 00:12:09;;;;;;;0.10;0.10;;;;;;;;;;5041776;28;20219;-68
2020/12/07 00:14:35;;;;;;;0.10;0.10;;;;;;;;;;5053199;28;20288;-68
2020/12/07 00:17:02;;;;;;;0.37;0.37;;;;;;;;;;5040620;28;20272;-68
2020/12/07 00:19:28;;;;;;;7.77;7.47;;;;;;;;;;5040750;28;20203;-68
2020/12/07 00:21:56;;;;;;;0.53;0.53;;;;;;;;;;5033573;28;20486;-69
2020/12/07 00:24:22;;;;;;;0.20;0.20;;;;;;;;;;5042450;28;20231;-68
2020/12/07 00:26:49;;;;;;;0.73;0.73;;;;;;;;;;5038943;28;20235;-67
2020/12/07 00:29:15;;;;;;;0.10;0.10;;;;;;;;;;5039944;28;20227;-68
2020/12/07 00:31:41;;;;;;;0.10;0.10;;;;;;;;;;5041033;28;20227;-67
2020/12/07 00:34:08;;;;;;;0.17;0.17;;;;;;;;;;5039265;28;20379;-68
2020/12/07 00:36:34;;;;;;;1.03;1.03;;;;;;;;;;5055441;28;20208;-69
2020/12/07 00:39:02;;;;;;;0.20;0.20;;;;;;;;;;5020674;28;20288;-67
2020/12/07 00:41:28;;;;;;;0.20;0.20;;;;;;;;;;5017361;28;20203;-69
2020/12/07 00:43:54;;;;;;;0.10;0.10;;;;;;;;;;5011815;28;20240;-68
2020/12/07 00:46:21;;;;;;;0.20;0.20;;;;;;;;;;5030913;28;20570;-69
2020/12/07 00:48:47;;;;;;;1.27;0.93;;;;;;;;;;5020176;28;20481;-68
2020/12/07 00:51:14;;;;;;;0.10;0.10;;;;;;;;;;5017951;28;20231;-68
2020/12/07 00:53:40;;;;;;;0.20;0.20;;;;;;;;;;5015420;28;20235;-68
2020/12/07 00:56:07;;;;;;;0.63;0.63;;;;;;;;;;5018698;28;20208;-68
2020/12/07 00:58:34;;;;;;;0.10;0.10;;;;;;;;;;5018829;28;20292;-68
2020/12/07 01:01:01;;;;;;;0.10;0.10;;;;;;;;;;5011547;28;20281;-68
2020/12/07 01:03:27;;;;;;;0.10;0.10;;;;;;;;;;5016884;28;20528;-68
2020/12/07 01:05:53;;;;;;;0.10;0.10;;;;;;;;;;5013699;28;20227;-68
2020/12/07 01:08:21;;;;;;;0.10;0.10;;;;;;;;;;5029414;28;20249;-68
2020/12/07 01:10:53;;;;;;;0.10;0.10;;;;;;;;;;5030297;28;20213;-67
2020/12/07 01:13:21;;;;;;;3.40;3.30;;;;;;;;;;5037780;28;20312;-68
2020/12/07 01:15:47;;;;;;;0.20;0.20;;;;;;;;;;5020638;28;20384;-68
2020/12/07 01:18:13;;;;;;;0.10;0.10;;;;;;;;;;5036305;28;20351;-68
2020/12/07 01:20:40;;;;;;;0.10;0.10;;;;;;;;;;5011101;28;20235;-68
2020/12/07 01:23:06;;;;;;;0.20;0.20;;;;;;;;;;5009127;28;20196;-68
2020/12/07 01:25:33;;;;;;;1.83;1.67;;;;;;;;;;5020094;28;20208;-68
2020/12/07 01:27:59;;;;;;;0.73;0.73;;;;;;;;;;5032896;28;20203;-69
2020/12/07 01:30:26;;;;;;;0.10;0.10;;;;;;;;;;5018940;28;20288;-68
2020/12/07 01:32:53;;;;;;;0.10;0.10;;;;;;;;;;5010952;28;20231;-67
2020/12/07 01:35:19;;;;;;;0.13;0.13;;;;;;;;;;5027801;28;20247;-68
2020/12/07 01:37:45;;;;;;;0.73;0.73;;;;;;;;;;5035912;28;20545;-67
2020/12/07 01:40:12;;;;;;;0.10;0.10;;;;;;;;;;5031608;28;20271;-68
2020/12/07 01:42:38;;;;;;;0.10;0.10;;;;;;;;;;5041069;28;20200;-68
2020/12/07 01:45:04;;;;;;;0.33;0.33;;;;;;;;;;5039842;28;20242;-68
2020/12/07 01:47:32;;;;;;;0.10;0.10;;;;;;;;;;5051906;28;20203;-67
2020/12/07 01:49:58;;;;;;;0.10;0.10;;;;;;;;;;5049198;28;20413;-67
2020/12/07 01:52:24;;;;;;;0.10;0.10;;;;;;;;;;5057549;28;20200;-67
2020/12/07 01:54:51;;;;;;;0.10;0.10;;;;;;;;;;5059885;28;20202;-67
2020/12/07 01:57:17;;;;;;;0.20;0.20;;;;;;;;;;5027486;28;20451;-67
2020/12/07 01:59:44;;;;;;;0.17;0.17;;;;;;;;;;5054031;28;20294;-68
2020/12/07 02:02:10;;;;;;;0.10;0.10;;;;;;;;;;5058015;28;20231;-67
2020/12/07 02:04:38;;;;;;;0.10;0.10;;;;;;;;;;5037981;28;20502;-67
2020/12/07 02:07:04;;;;;;;0.17;0.17;;;;;;;;;;5041216;28;20509;-67
2020/12/07 02:09:30;;;;;;;0.23;0.23;;;;;;;;;;5058624;28;20247;-67
2020/12/07 02:11:57;;;;;;;0.30;0.30;;;;;;;;;;5042284;28;20203;-67
2020/12/07 02:14:23;;;;;;;0.10;0.10;;;;;;;;;;5054582;28;20324;-67
2020/12/07 02:16:50;;;;;;;0.10;0.10;;;;;;;;;;5056297;28;20211;-67
2020/12/07 02:19:16;;;;;;;0.20;0.20;;;;;;;;;;5039533;28;20205;-67
2020/12/07 02:21:44;;;;;;;0.20;0.20;;;;;;;;;;5037364;28;20243;-67
2020/12/07 02:24:10;;;;;;;0.40;0.40;;;;;;;;;;5037350;28;20202;-67
2020/12/07 02:26:37;;;;;;;0.20;0.20;;;;;;;;;;5037902;28;20200;-66
2020/12/07 02:29:03;;;;;;;0.10;0.10;;;;;;;;;;5038686;28;20250;-68
2020/12/07 02:31:29;;;;;;;0.20;0.20;;;;;;;;;;5052433;28;20206;-67
2020/12/07 02:33:56;;;;;;;0.20;0.20;;;;;;;;;;5037217;28;20198;-67
2020/12/07 02:36:22;;;;;;;0.20;0.20;;;;;;;;;;5030913;28;20207;-67
2020/12/07 02:38:49;;;;;;;0.20;0.20;;;;;;;;;;5045318;28;20454;-68
2020/12/07 02:41:16;;;;;;;0.10;0.10;;;;;;;;;;5033844;28;20463;-67
2020/12/07 02:43:42;;;;;;;0.30;0.30;;;;;;;;;;5032788;28;20279;-68
2020/12/07 02:46:09;;;;;;;1.80;1.70;;;;;;;;;;5040974;28;20199;-68
2020/12/07 02:48:35;;;;;;;0.20;0.20;;;;;;;;;;5035394;28;20466;-67
2020/12/07 02:51:02;;;;;;;0.10;0.10;;;;;;;;;;5037682;28;20213;-67
2020/12/07 02:53:28;;;;;;;0.13;0.13;;;;;;;;;;5040127;28;20237;-67
2020/12/07 02:55:56;;;;;;;0.10;0.10;;;;;;;;;;5038495;28;20200;-67
2020/12/07 02:58:22;;;;;;;0.10;0.10;;;;;;;;;;5033164;28;20196;-67
2020/12/07 03:00:48;;;;;;;0.10;0.10;;;;;;;;;;5057569;28;20237;-67
2020/12/07 03:03:15;;;;;;;0.20;0.20;;;;;;;;;;5036274;28;20205;-67
2020/12/07 03:05:41;;;;;;;0.20;0.20;;;;;;;;;;5033983;28;20242;-67
2020/12/07 03:08:08;;;;;;;0.17;0.17;;;;;;;;;;5033131;28;20203;-68
2020/12/07 03:10:34;;;;;;;0.20;0.20;;;;;;;;;;5039111;28;20280;-66
2020/12/07 03:13:02;;;;;;;0.20;0.20;;;;;;;;;;5040594;28;20209;-66
2020/12/07 03:15:28;;;;;;;2.53;2.43;;;;;;;;;;5037316;28;20286;-67
2020/12/07 03:17:55;;;;;;;0.10;0.10;;;;;;;;;;5038985;28;20352;-65
2020/12/07 03:20:21;;;;;;;0.20;0.20;;;;;;;;;;5055885;28;20207;-66
2020/12/07 03:22:48;;;;;;;0.20;0.20;;;;;;;;;;5037365;28;20424;-65
2020/12/07 03:25:14;;;;;;;0.20;0.20;;;;;;;;;;5036265;28;20202;-67
2020/12/07 03:27:41;;;;;;;0.10;0.10;;;;;;;;;;5036737;28;20492;-66
2020/12/07 03:30:08;;;;;;;0.20;0.20;;;;;;;;;;5036626;28;20479;-66
2020/12/07 03:32:34;;;;;;;0.13;0.13;;;;;;;;;;5040185;28;20403;-66
2020/12/07 03:35:01;;;;;;;0.10;0.10;;;;;;;;;;5040933;28;20483;-67
2020/12/07 03:37:27;;;;;;;0.20;0.20;;;;;;;;;;5038660;28;20251;-66
2020/12/07 03:39:54;;;;;;;0.67;0.67;;;;;;;;;;5033398;28;20451;-66
2020/12/07 03:42:20;;;;;;;0.10;0.10;;;;;;;;;;5021108;28;20306;-67
2020/12/07 03:44:46;;;;;;;0.30;0.30;;;;;;;;;;5038059;28;20522;-66
2020/12/07 03:47:14;;;;;;;0.20;0.20;;;;;;;;;;5016120;28;20204;-69
2020/12/07 03:49:40;;;;;;;0.20;0.20;;;;;;;;;;5012644;28;20294;-66
2020/12/07 03:52:06;;;;;;;0.30;0.30;;;;;;;;;;5037616;28;20203;-65
2020/12/07 03:54:32;;;;;;;0.30;0.30;;;;;;;;;;5016172;28;20467;-66
2020/12/07 03:56:59;;;;;;;0.10;0.10;;;;;;;;;;5034292;28;20206;-65
2020/12/07 03:59:26;;;;;;;0.57;0.57;;;;;;;;;;5020624;28;20317;-65
2020/12/07 04:01:52;;;;;;;0.80;0.80;;;;;;;;;;5013844;28;20231;-66
2020/12/07 04:04:24;;;;;;;0.20;0.20;;;;;;;;;;5016554;28;20256;-66
2020/12/07 04:06:51;;;;;;;0.20;0.20;;;;;;;;;;5039310;28;20200;-66
2020/12/07 04:09:18;;;;;;;0.67;0.67;;;;;;;;;;5015299;28;20437;-66
2020/12/07 04:11:44;;;;;;;0.20;0.20;;;;;;;;;;5018150;28;20497;-65
2020/12/07 04:14:11;;;;;;;0.40;0.40;;;;;;;;;;5015629;28;20219;-66
2020/12/07 04:16:37;;;;;;;0.10;0.10;;;;;;;;;;5019921;28;20249;-66
2020/12/07 04:19:03;;;;;;;0.80;0.80;;;;;;;;;;5033890;28;20206;-66
2020/12/07 04:21:31;;;;;;;0.20;0.20;;;;;;;;;;5014721;28;20208;-66
2020/12/07 04:23:57;;;;;;;0.20;0.20;;;;;;;;;;5019631;28;20232;-65
2020/12/07 04:26:24;;;;;;;0.10;0.10;;;;;;;;;;5019274;28;20204;-65
2020/12/07 04:28:50;;;;;;;0.17;0.17;;;;;;;;;;5030841;28;20254;-66
2020/12/07 04:31:17;;;;;;;0.10;0.10;;;;;;;;;;5013689;28;20403;-66
2020/12/07 04:33:43;;;;;;;3.17;2.90;;;;;;;;;;5017333;28;20201;-66
2020/12/07 04:36:09;;;;;;;0.10;0.10;;;;;;;;;;5015094;28;20382;-66
2020/12/07 04:38:36;;;;;;;0.10;0.10;;;;;;;;;;5062315;28;20246;-65
2020/12/07 04:41:03;;;;;;;0.50;0.50;;;;;;;;;;5058987;28;20273;-66
2020/12/07 04:43:30;;;;;;;0.20;0.20;;;;;;;;;;5035708;28;20200;-65
2020/12/07 04:45:57;;;;;;;0.10;0.10;;;;;;;;;;5043436;28;20206;-66
2020/12/07 04:48:24;;;;;;;0.20;0.20;;;;;;;;;;5039748;28;20250;-66
2020/12/07 04:50:51;;;;;;;2.30;2.10;;;;;;;;;;5052644;28;20241;-69
2020/12/07 04:53:18;;;;;;;0.23;0.23;;;;;;;;;;5042486;28;20206;-70
2020/12/07 04:55:45;;;;;;;0.10;0.10;;;;;;;;;;5041062;28;20518;-67
2020/12/07 04:58:12;;;;;;;0.10;0.10;;;;;;;;;;5036627;28;20235;-66
2020/12/07 05:00:39;;;;;;;0.13;0.13;;;;;;;;;;5039709;28;20306;-65
2020/12/07 05:03:06;;;;;;;0.20;0.20;;;;;;;;;;5037170;28;20205;-65
2020/12/07 05:05:32;;;;;;;0.20;0.20;;;;;;;;;;5037627;28;20225;-65
2020/12/07 05:07:59;;;;;;;0.10;0.10;;;;;;;;;;5035930;28;20199;-65
2020/12/07 05:10:30;;;;;;;3.97;3.80;;;;;;;;;;5060421;28;20227;-66
2020/12/07 05:13:05;;;;;;;0.20;0.20;;;;;;;;;;5056560;28;20214;-66
2020/12/07 05:15:32;;;;;;;0.10;0.10;;;;;;;;;;5056464;28;20239;-65
2020/12/07 05:17:58;;;;;;;0.20;0.20;;;;;;;;;;5041509;28;20202;-66
2020/12/07 05:20:26;;;;;;;5.67;2.10;;;;;;;;;;5035972;28;20414;-66
2020/12/07 05:22:52;;;;;;;0.77;0.77;;;;;;;;;;5057829;28;20238;-67
2020/12/07 05:25:19;;;;;;;0.10;0.10;;;;;;;;;;5033117;28;20211;-68
2020/12/07 05:27:46;;;;;;;0.20;0.20;;;;;;;;;;5041750;28;20405;-66
2020/12/07 05:30:20;;;;;;;0.83;0.83;;;;;;;;;;5043265;28;20428;-65
2020/12/07 05:32:46;;;;;;;0.10;0.10;;;;;;;;;;5063470;28;20203;-66
2020/12/07 05:35:13;;;;;;;0.17;0.17;;;;;;;;;;5053834;28;20553;-67
2020/12/07 05:37:39;;;;;;;0.10;0.10;;;;;;;;;;5037161;28;20265;-66
2020/12/07 05:40:06;;;;;;;0.50;0.50;;;;;;;;;;5058516;28;20203;-68
2020/12/07 05:42:33;;;;;;;0.77;0.77;;;;;;;;;;5045881;28;20211;-67
2020/12/07 05:45:00;;;;;;;0.33;0.33;;;;;;;;;;5030177;28;20245;-67
2020/12/07 05:47:27;;;;;;;0.10;0.10;;;;;;;;;;5045469;28;20261;-67
2020/12/07 05:49:55;;;;;;;2.37;2.27;;;;;;;;;;5032011;28;20524;-67
2020/12/07 05:52:34;;;;;;;0.20;0.20;;;;;;;;;;5022839;28;20216;-67
2020/12/07 05:55:01;;;;;;;0.10;0.10;;;;;;;;;;5047712;28;20213;-67
2020/12/07 05:57:28;;;;;;;0.33;0.33;;;;;;;;;;5027294;28;20286;-67
2020/12/07 05:59:56;;;;;;;0.20;0.20;;;;;;;;;;5056049;28;20504;-67
2020/12/07 06:02:23;;;;;;;0.10;0.10;;;;;;;;;;5027170;28;20498;-66
2020/12/07 06:04:52;;;;;;;0.10;0.10;;;;;;;;;;5035432;28;20233;-67
2020/12/07 06:07:20;;;;;;;2.27;2.27;;;;;;;;;;5041248;28;20205;-66
2020/12/07 06:09:47;;;;;;;0.77;0.77;;;;;;;;;;5069321;28;20250;-67
2020/12/07 06:12:16;;;;;;;67.37;28.30;;;;;;;;;;5024305;28;20507;-67
2020/12/07 06:14:43;;;;;;;0.10;0.10;;;;;;;;;;5057523;28;20351;-67
2020/12/07 06:17:10;;;;;;;2.10;2.00;;;;;;;;;;5032767;28;20505;-67
2020/12/07 06:19:38;;;;;;;0.20;0.20;;;;;;;;;;5038394;28;20225;-66
2020/12/07 06:22:07;;;;;;;0.10;0.10;;;;;;;;;;5033986;28;20341;-67
2020/12/07 06:24:43;;;;;;;0.20;0.20;;;;;;;;;;5036245;28;20202;-67
2020/12/07 06:27:10;;;;;;;0.10;0.10;;;;;;;;;;5034888;28;20299;-68
2020/12/07 06:29:37;;;;;;;5.60;5.20;;;;;;;;;;5058288;28;20226;-70
2020/12/07 06:32:04;;;;;;;0.10;0.10;;;;;;;;;;5037203;28;20229;-67
2020/12/07 06:34:34;;;;;;;0.13;0.13;;;;;;;;;;5034295;28;20205;-67
2020/12/07 06:37:01;;;;;;;0.20;0.20;;;;;;;;;;5035545;28;20233;-67
2020/12/07 06:39:40;;;;;;;0.10;0.10;;;;;;;;;;5053141;28;20253;-67
2020/12/07 06:42:08;;;;;;;0.20;0.20;;;;;;;;;;5052765;28;20316;-67
2020/12/07 06:44:35;;;;;;;0.10;0.10;;;;;;;;;;5054017;28;20233;-67
2020/12/07 06:47:03;;;;;;;0.53;0.53;;;;;;;;;;5035598;28;20211;-69
2020/12/07 06:49:37;;;;;;;0.40;0.40;;;;;;;;;;5038496;28;20221;-67
2020/12/07 06:52:08;;;;;;;0.10;0.10;;;;;;;;;;5074722;28;20234;-68
2020/12/07 06:57:23;;;;;;;0.10;0.10;;;;;;;;;;5078658;28;20269;-67
2020/12/07 06:59:54;;;;;;;0.10;0.10;;;;;;;;;;5039060;28;20430;-68
2020/12/07 07:02:20;;;;;;;8.83;8.30;;;;;;;;;;5038908;28;20205;-68
2020/12/07 07:04:50;;;;;;;0.10;0.10;;;;;;;;;;5038295;28;20480;-67
2020/12/07 07:07:18;;;;;;;3.50;3.30;;;;;;;;;;5054073;28;20221;-69
2020/12/07 07:09:45;;;;;;;0.20;0.20;;;;;;;;;;5052633;28;20298;-67
2020/12/07 07:12:12;;;;;;;0.20;0.20;;;;;;;;;;5051998;28;20540;-70
2020/12/07 07:14:39;;;;;;;0.10;0.10;;;;;;;;;;5033326;28;20220;-70
2020/12/07 07:17:06;;;;;;;2.47;2.37;;;;;;;;;;5034490;28;20461;-70
2020/12/07 07:19:32;;;;;;;0.10;0.10;;;;;;;;;;5032543;28;20394;-69
2020/12/07 07:21:59;;;;;;;0.20;0.20;;;;;;;;;;5052353;28;20462;-71
2020/12/07 07:24:28;;;;;;;0.20;0.20;;;;;;;;;;5052172;28;20488;-68
2020/12/07 07:27:01;;;;;;;2.03;1.93;;;;;;;;;;5053244;28;20214;-69
2020/12/07 07:29:26;;;;;;;0.20;0.20;;;;;;;;;;5070926;28;20233;-69
2020/12/07 07:31:53;;;;;;;0.10;0.10;;;;;;;;;;5053594;28;20230;-69
2020/12/07 07:34:19;;;;;;;0.20;0.20;;;;;;;;;;5034108;28;20228;-69
2020/12/07 07:36:45;;;;;;;0.20;0.20;;;;;;;;;;5037003;28;20205;-68
2020/12/07 07:39:14;;;;;;;0.20;0.20;;;;;;;;;;5052864;28;20225;-68
2020/12/07 07:41:41;;;;;;;0.10;0.10;;;;;;;;;;5050258;28;20399;-67
2020/12/07 07:44:09;;;;;;;1.50;1.43;;;;;;;;;;5052175;28;20198;-67
2020/12/07 07:46:37;;;;;;;0.20;0.20;;;;;;;;;;5053547;28;20535;-68
2020/12/07 07:49:17;;;;;;;0.10;0.10;;;;;;;;;;5038734;28;20523;-68
2020/12/07 07:57:40;;;;;;;0.20;0.20;;;;;;;;;;5002099;28;20494;-68
2020/12/07 08:17:50;;;;;;;0.20;0.20;;;;;;;;;;5059406;28;20264;-68
2020/12/07 08:20:18;;;;;;;0.63;0.63;;;;;;;;;;5054586;28;20208;-69
2020/12/07 08:22:54;;;;;;;0.20;0.20;;;;;;;;;;5039034;28;20520;-68
2020/12/07 08:25:20;;;;;;;0.20;0.20;;;;;;;;;;5054608;28;20209;-69
2020/12/07 08:27:47;;;;;;;0.73;0.73;;;;;;;;;;5033726;28;20502;-69
2020/12/07 08:30:14;;;;;;;0.20;0.20;;;;;;;;;;5037423;28;20223;-68
2020/12/07 08:32:40;;;;;;;0.30;0.30;;;;;;;;;;5036658;28;20518;-68
2020/12/07 08:35:12;;;;;;;4.37;2.50;;;;;;;;;;5037302;28;20207;-68
2020/12/07 08:37:41;;;;;;;0.60;0.60;;;;;;;;;;5061278;28;20297;-70
2020/12/07 08:40:08;;;;;;;2.00;1.73;;;;;;;;;;5054474;28;20367;-69
2020/12/07 08:42:34;;;;;;;0.30;0.30;;;;;;;;;;5038831;28;20496;-70
2020/12/07 08:45:01;;;;;;;0.50;0.50;;;;;;;;;;5036720;28;20290;-69
2020/12/07 08:47:27;;;;;;;0.20;0.20;;;;;;;;;;5037195;28;20227;-69
2020/12/07 08:49:54;;;;;;;1.07;1.07;;;;;;;;;;5036999;28;20332;-71
2020/12/07 08:52:21;;;;;;;0.10;0.10;;;;;;;;;;5052455;28;20498;-68
2020/12/07 08:54:48;;;;;;;0.20;0.20;;;;;;;;;;5035335;28;20468;-69
2020/12/07 08:57:15;;;;;;;0.10;0.10;;;;;;;;;;5037994;28;20954;-69
2020/12/07 08:59:41;;;;;;;1.80;1.70;;;;;;;;;;5035557;28;20375;-68
2020/12/07 09:02:08;;;;;;;3.60;3.30;;;;;;;;;;5037578;28;20386;-68
2020/12/07 09:04:34;;;;;;;6.70;6.30;;;;;;;;;;5033242;28;20369;-69
2020/12/07 09:07:03;;;;;;;0.47;0.47;;;;;;;;;;5037961;28;20256;-69
2020/12/07 09:09:30;;;;;;;0.27;0.27;;;;;;;;;;5054648;28;20634;-68
2020/12/07 09:11:57;;;;;;;0.13;0.13;;;;;;;;;;5036026;28;20283;-69
2020/12/07 09:14:23;;;;;;;3.70;2.10;;;;;;;;;;5034860;28;20508;-69
2020/12/07 09:16:50;;;;;;;0.17;0.17;;;;;;;;;;5036044;28;20542;-69
2020/12/07 09:19:17;;;;;;;0.13;0.13;;;;;;;;;;5038513;28;20274;-72
2020/12/07 09:21:44;;;;;;;2.30;2.20;;;;;;;;;;5042958;28;20424;-69
2020/12/07 09:24:10;;;;;;;0.20;0.20;;;;;;;;;;5035957;28;20272;-71
2020/12/07 09:26:37;;;;;;;0.30;0.30;;;;;;;;;;5036597;28;20518;-69
2020/12/07 09:29:04;;;;;;;0.17;0.17;;;;;;;;;;5035564;28;20200;-69
2020/12/07 09:31:31;;;;;;;0.10;0.10;;;;;;;;;;5037618;28;20207;-70
2020/12/07 09:33:57;;;;;;;0.13;0.13;;;;;;;;;;5035968;28;20283;-69
2020/12/07 09:36:24;;;;;;;0.20;0.20;;;;;;;;;;5038306;28;20492;-69
2020/12/07 09:38:50;;;;;;;0.17;0.17;;;;;;;;;;5054068;28;20233;-69
2020/12/07 09:41:17;;;;;;;1.50;1.30;;;;;;;;;;5036673;28;20204;-70
2020/12/07 09:43:45;;;;;;;0.20;0.20;;;;;;;;;;5036257;28;20248;-69
2020/12/07 09:46:11;;;;;;;0.10;0.10;;;;;;;;;;5035713;28;20493;-68
2020/12/07 09:48:38;;;;;;;0.20;0.20;;;;;;;;;;5036477;28;20213;-69
2020/12/07 09:51:04;;;;;;;0.20;0.20;;;;;;;;;;5036294;28;20253;-68
2020/12/07 09:53:31;;;;;;;0.20;0.20;;;;;;;;;;5036963;28;20220;-69
2020/12/07 09:55:58;;;;;;;0.37;0.37;;;;;;;;;;5035396;28;20214;-70
2020/12/07 09:58:24;;;;;;;0.17;0.17;;;;;;;;;;5034418;28;20228;-69
2020/12/07 10:00:51;;;;;;;0.30;0.30;;;;;;;;;;5053531;28;20279;-69
2020/12/07 10:03:18;;;;;;;0.10;0.10;;;;;;;;;;5036104;28;20213;-69
2020/12/07 10:05:44;;;;;;;0.13;0.13;;;;;;;;;;5034362;28;20440;-68
2020/12/07 10:08:11;;;;;;;0.10;0.10;;;;;;;;;;5033808;28;20273;-68
2020/12/07 10:10:37;;;;;;;0.10;0.10;;;;;;;;;;5034501;28;20263;-69
2020/12/07 10:13:04;;;;;;;0.17;0.17;;;;;;;;;;5036517;28;20391;-69
2020/12/07 10:15:30;;;;;;;1.70;1.60;;;;;;;;;;5053125;28;20225;-68
2020/12/07 10:17:57;;;;;;;0.30;0.30;;;;;;;;;;5036426;28;20202;-69
2020/12/07 10:20:24;;;;;;;3.33;3.20;;;;;;;;;;5052117;28;20235;-69
2020/12/07 10:22:50;;;;;;;0.10;0.10;;;;;;;;;;5036127;28;20554;-67
2020/12/07 10:25:17;;;;;;;0.10;0.10;;;;;;;;;;5035854;28;20205;-67
2020/12/07 10:27:43;;;;;;;0.10;0.10;;;;;;;;;;5035528;28;20267;-68
2020/12/07 10:30:10;;;;;;;0.10;0.10;;;;;;;;;;5034150;28;20238;-68
2020/12/07 10:32:36;;;;;;;0.87;0.87;;;;;;;;;;5034489;28;20201;-68
2020/12/07 10:35:04;;;;;;;3.50;3.40;;;;;;;;;;5036477;28;20236;-67
2020/12/07 10:37:30;;;;;;;0.30;0.30;;;;;;;;;;5053119;28;20290;-70
2020/12/07 10:39:57;;;;;;;8.70;7.93;;;;;;;;;;5035214;28;20454;-68
2020/12/07 10:42:23;;;;;;;1.70;1.70;;;;;;;;;;5037311;28;20205;-68
2020/12/07 10:44:50;;;;;;;0.20;0.20;;;;;;;;;;5036123;28;20241;-68
2020/12/07 10:47:16;;;;;;;0.10;0.10;;;;;;;;;;5035313;28;20415;-68
2020/12/07 10:49:43;;;;;;;0.20;0.20;;;;;;;;;;5036901;28;20226;-68
2020/12/07 10:52:10;;;;;;;0.20;0.20;;;;;;;;;;5055363;28;20213;-68
2020/12/07 10:54:37;;;;;;;0.10;0.10;;;;;;;;;;5035751;28;20282;-69
2020/12/07 10:57:03;;;;;;;0.10;0.10;;;;;;;;;;5035564;28;20217;-68
2020/12/07 10:59:30;;;;;;;0.10;0.10;;;;;;;;;;5033973;28;20252;-67
2020/12/07 11:01:56;;;;;;;0.20;0.20;;;;;;;;;;5036240;28;20235;-68
2020/12/07 11:04:23;;;;;;;0.20;0.20;;;;;;;;;;5051940;28;20217;-68
2020/12/07 11:06:52;;;;;;;0.13;0.13;;;;;;;;;;5038238;28;20223;-68
2020/12/07 11:09:24;;;;;;;0.20;0.20;;;;;;;;;;5053080;28;20240;-69
2020/12/07 11:11:50;;;;;;;0.80;0.80;;;;;;;;;;5053669;28;20222;-68
2020/12/07 11:14:17;;;;;;;1.23;1.23;;;;;;;;;;5041088;28;20215;-68
2020/12/07 11:16:43;;;;;;;1.53;1.53;;;;;;;;;;5035521;28;20461;-70
2020/12/07 11:19:09;;;;;;;0.20;0.20;;;;;;;;;;5035041;28;20201;-70
2020/12/07 11:21:36;;;;;;;1.33;1.33;;;;;;;;;;5054279;28;20234;-68
2020/12/07 11:24:02;;;;;;;3.27;2.20;;;;;;;;;;5038064;28;20315;-68
2020/12/07 11:26:30;;;;;;;0.67;0.67;;;;;;;;;;5057681;28;20210;-68
2020/12/07 11:28:56;;;;;;;0.20;0.20;;;;;;;;;;5036516;28;20243;-68
2020/12/07 11:31:23;;;;;;;0.20;0.20;;;;;;;;;;5040457;28;20278;-69
2020/12/07 11:33:49;;;;;;;0.20;0.20;;;;;;;;;;5037430;28;20288;-68
2020/12/07 11:36:17;;;;;;;0.10;0.10;;;;;;;;;;5038003;28;20402;-68
2020/12/07 11:38:47;;;;;;;0.57;0.57;;;;;;;;;;5037701;28;20298;-68
2020/12/07 11:41:33;;;;;;;0.10;0.10;;;;;;;;;;5057051;28;20243;-68
2020/12/07 11:44:09;;;;;;;3.43;3.33;;;;;;;;;;5060286;28;20196;-68
2020/12/07 11:46:38;;;;;;;0.10;0.10;;;;;;;;;;5058330;28;20237;-68
2020/12/07 11:49:05;;;;;;;0.20;0.20;;;;;;;;;;5058695;28;20390;-68
2020/12/07 11:51:32;;;;;;;0.60;0.60;;;;;;;;;;5037783;28;20221;-68
2020/12/07 11:53:58;;;;;;;0.27;0.27;;;;;;;;;;5041573;28;20403;-65
2020/12/07 11:56:31;;;;;;;0.10;0.10;;;;;;;;;;5036710;28;20206;-66
2020/12/07 11:58:58;;;;;;;0.30;0.30;;;;;;;;;;5038871;28;20209;-67
2020/12/07 12:01:25;;;;;;;0.10;0.10;;;;;;;;;;5034438;28;20257;-68
2020/12/07 12:03:52;;;;;;;0.50;0.50;;;;;;;;;;5056477;28;20212;-68
2020/12/07 12:06:22;;;;;;;0.10;0.10;;;;;;;;;;5038201;28;20336;-69
2020/12/07 12:08:49;;;;;;;0.20;0.20;;;;;;;;;;5038586;28;20409;-69
2020/12/07 12:11:16;;;;;;;0.20;0.20;;;;;;;;;;5057542;28;20583;-71
2020/12/07 12:13:41;;;;;;;0.30;0.30;;;;;;;;;;5053292;28;20273;-68
2020/12/07 12:16:08;;;;;;;0.70;0.70;;;;;;;;;;5056731;28;20280;-68
2020/12/07 12:18:35;;;;;;;0.10;0.10;;;;;;;;;;5038355;28;20242;-68
2020/12/07 12:21:02;;;;;;;1.50;1.37;;;;;;;;;;5037496;28;20209;-69
2020/12/07 12:23:28;;;;;;;0.10;0.10;;;;;;;;;;5037832;28;20335;-68
2020/12/07 12:25:55;;;;;;;0.10;0.10;;;;;;;;;;5038068;28;20227;-68
2020/12/07 12:28:22;;;;;;;4.43;3.50;;;;;;;;;;5036164;28;20304;-68
2020/12/07 12:30:48;;;;;;;0.20;0.20;;;;;;;;;;5035846;28;20221;-68
2020/12/07 12:33:14;;;;;;;0.10;0.10;;;;;;;;;;5035752;28;20252;-68
2020/12/07 12:35:41;;;;;;;0.10;0.10;;;;;;;;;;5074411;28;20252;-69
2020/12/07 12:38:08;;;;;;;0.10;0.10;;;;;;;;;;5056040;28;20460;-68
2020/12/07 12:40:34;;;;;;;1.00;1.00;;;;;;;;;;5036361;28;20202;-67
2020/12/07 12:43:01;;;;;;;1.03;1.03;;;;;;;;;;5035883;28;20221;-67
2020/12/07 12:45:28;;;;;;;1.23;1.23;;;;;;;;;;5035689;28;20244;-69
2020/12/07 12:47:54;;;;;;;0.20;0.20;;;;;;;;;;5037333;28;20209;-69
2020/12/07 12:50:21;;;;;;;0.10;0.10;;;;;;;;;;5036195;28;20526;-67
2020/12/07 12:52:48;;;;;;;0.50;0.50;;;;;;;;;;5036526;28;20248;-68
2020/12/07 12:55:15;;;;;;;0.10;0.10;;;;;;;;;;5037539;28;20207;-67
2020/12/07 12:57:42;;;;;;;0.10;0.10;;;;;;;;;;5036494;28;20243;-67
2020/12/07 13:00:08;;;;;;;0.90;0.90;;;;;;;;;;5036059;28;20226;-68
2020/12/07 13:02:35;;;;;;;0.10;0.10;;;;;;;;;;5038077;28;20239;-68
2020/12/07 13:05:02;;;;;;;1.37;1.37;;;;;;;;;;5036287;28;20271;-68
2020/12/07 13:07:28;;;;;;;0.30;0.30;;;;;;;;;;5034710;28;20225;-68
2020/12/07 13:09:56;;;;;;;0.10;0.10;;;;;;;;;;5034799;28;20221;-68
2020/12/07 13:12:22;;;;;;;2.47;1.07;;;;;;;;;;5035805;28;20206;-68
2020/12/07 13:14:49;;;;;;;0.10;0.10;;;;;;;;;;5037724;28;20421;-68
2020/12/07 13:17:17;;;;;;;0.10;0.10;;;;;;;;;;5053540;28;20401;-68
2020/12/07 13:19:44;;;;;;;1.30;1.20;;;;;;;;;;5073278;28;20213;-69
2020/12/07 13:22:15;;;;;;;1.33;1.23;;;;;;;;;;5036712;28;20220;-69
2020/12/07 13:24:46;;;;;;;0.40;0.40;;;;;;;;;;5056114;28;20229;-70
2020/12/07 13:27:31;;;;;;;0.10;0.10;;;;;;;;;;5074456;28;20264;-68
2020/12/07 13:29:58;;;;;;;1.37;1.27;;;;;;;;;;5058747;28;20221;-68
2020/12/07 13:32:24;;;;;;;0.10;0.10;;;;;;;;;;5033274;28;20206;-68
2020/12/07 13:34:50;;;;;;;0.20;0.20;;;;;;;;;;5054156;28;20212;-68
2020/12/07 13:37:17;;;;;;;0.13;0.13;;;;;;;;;;5053198;28;20333;-68
2020/12/07 13:39:44;;;;;;;0.10;0.10;;;;;;;;;;5035115;28;20209;-69
2020/12/07 13:42:11;;;;;;;2.40;2.33;;;;;;;;;;5035347;28;20204;-68
2020/12/07 13:44:38;;;;;;;0.13;0.13;;;;;;;;;;5034071;28;20230;-68
2020/12/07 13:47:09;;;;;;;0.57;0.57;;;;;;;;;;5037240;28;20201;-69
2020/12/07 13:49:35;;;;;;;0.77;0.77;;;;;;;;;;5055564;28;20261;-69
2020/12/07 13:52:02;;;;;;;0.40;0.40;;;;;;;;;;5053541;28;20350;-69
2020/12/07 13:54:28;;;;;;;1.57;1.57;;;;;;;;;;5037146;28;20217;-70
2020/12/07 13:56:55;;;;;;;11.03;8.40;;;;;;;;;;5034591;28;20217;-70
2020/12/07 13:59:21;;;;;;;0.30;0.30;;;;;;;;;;5034614;28;20443;-71
2020/12/07 14:01:50;;;;;;;0.20;0.20;;;;;;;;;;5034375;28;20305;-68
2020/12/07 14:04:29;;;;;;;0.20;0.20;;;;;;;;;;5038222;28;20251;-69
2020/12/07 14:06:55;;;;;;;3.03;2.83;;;;;;;;;;5057533;28;20565;-69
2020/12/07 14:09:21;;;;;;;0.10;0.10;;;;;;;;;;5033548;28;20297;-68
2020/12/07 14:11:48;;;;;;;0.37;0.37;;;;;;;;;;5033334;28;20206;-69
2020/12/07 14:14:15;;;;;;;0.20;0.20;;;;;;;;;;5036927;28;20217;-69
2020/12/07 14:16:42;;;;;;;0.10;0.10;;;;;;;;;;5054772;28;20200;-68
2020/12/07 14:19:12;;;;;;;3.23;3.10;;;;;;;;;;5035405;28;20288;-69
2020/12/07 14:22:04;;;;;;;0.10;0.10;;;;;;;;;;5058629;28;20204;-69
2020/12/07 14:24:36;;;;;;;0.20;0.20;;;;;;;;;;5058119;28;20206;-68
2020/12/07 14:27:08;;;;;;;0.10;0.10;;;;;;;;;;5055581;28;20327;-68
2020/12/07 14:30:01;;;;;;;0.10;0.10;;;;;;;;;;5054720;28;20211;-68
2020/12/07 14:40:38;;;;;;;0.20;0.20;;;;;;;;;;5056940;28;20233;-69
2020/12/07 14:43:05;;;;;;;6.43;6.03;;;;;;;;;;5033794;28;20206;-68
2020/12/07 14:45:35;;;;;;;0.13;0.13;;;;;;;;;;5035023;28;20420;-69
2020/12/07 14:48:04;;;;;;;0.20;0.20;;;;;;;;;;5056583;28;20225;-69
2020/12/07 14:50:36;;;;;;;0.23;0.23;;;;;;;;;;5053576;28;20526;-69
2020/12/07 14:53:07;;;;;;;0.10;0.10;;;;;;;;;;5072643;28;20198;-69
2020/12/07 14:55:37;;;;;;;0.10;0.10;;;;;;;;;;5058017;28;20309;-69
2020/12/07 15:06:14;;;;;;;0.10;0.10;;;;;;;;;;5058387;28;20186;-67
2020/12/07 15:09:13;;;;;;;0.10;0.10;;;;;;;;;;5075745;28;20276;-68
2020/12/07 15:14:20;;;;;;;0.10;0.10;;;;;;;;;;5056912;28;20213;-69
2020/12/07 15:16:47;;;;;;;0.63;0.63;;;;;;;;;;5038871;28;20391;-68
2020/12/07 15:19:14;;;;;;;0.20;0.20;;;;;;;;;;5039095;28;20381;-68
2020/12/07 15:21:46;;;;;;;0.20;0.20;;;;;;;;;;5044362;28;20210;-70
2020/12/07 15:24:12;;;;;;;0.17;0.17;;;;;;;;;;5057620;28;20213;-70
2020/12/07 15:26:39;;;;;;;0.20;0.20;;;;;;;;;;5043157;28;20207;-70
2020/12/07 15:29:06;;;;;;;0.20;0.20;;;;;;;;;;5043269;28;20197;-70
2020/12/07 15:31:33;;;;;;;0.20;0.20;;;;;;;;;;5041005;28;20292;-69